sensor_id;sensor_type;location;lat;lon;timestamp;P1;durP1;ratioP1;P2;durP2;ratioP2
42094;SDS011;27753;55.724;37.612;2023-11-19T00:00:34;14.15;;;9.23;;
42094;SDS011;27753;55.724;37.612;2023-11-19T00:03:00;15.00;;;7.10;;
42094;SDS011;27753;55.724;37.612;2023-11-19T00:05:26;16.73;;;8.93;;
42094;SDS011;27753;55.724;37.612;2023-11-19T00:07:52;16.40;;;8.05;;
42094;SDS011;27753;55.724;37.612;2023-11-19T00:10:18;18.33;;;8.88;;
42094;SDS011;27753;55.724;37.612;2023-11-19T00:12:46;18.20;;;9.48;;
42094;SDS011;27753;55.724;37.612;2023-11-19T00:15:13;15.68;;;8.10;;
42094;SDS011;27753;55.724;37.612;2023-11-19T00:17:40;13.40;;;6.68;;
42094;SDS011;27753;55.724;37.612;2023-11-19T00:20:12;14.48;;;8.20;;
42094;SDS011;27753;55.724;37.612;2023-11-19T00:22:39;15.52;;;9.43;;
42094;SDS011;27753;55.724;37.612;2023-11-19T00:25:09;18.63;;;9.05;;
42094;SDS011;27753;55.724;37.612;2023-11-19T00:27:35;14.75;;;8.38;;
42094;SDS011;27753;55.724;37.612;2023-11-19T00:30:05;14.13;;;7.45;;
42094;SDS011;27753;55.724;37.612;2023-11-19T00:32:32;18.38;;;9.32;;
42094;SDS011;27753;55.724;37.612;2023-11-19T00:34:58;21.02;;;9.18;;
42094;SDS011;27753;55.724;37.612;2023-11-19T00:37:24;12.48;;;7.82;;
42094;SDS011;27753;55.724;37.612;2023-11-19T00:39:50;19.63;;;8.23;;
42094;SDS011;27753;55.724;37.612;2023-11-19T00:42:17;17.85;;;9.25;;
42094;SDS011;27753;55.724;37.612;2023-11-19T00:44:43;11.70;;;8.13;;
42094;SDS011;27753;55.724;37.612;2023-11-19T00:47:08;14.18;;;9.48;;
42094;SDS011;27753;55.724;37.612;2023-11-19T00:49:34;16.92;;;8.18;;
42094;SDS011;27753;55.724;37.612;2023-11-19T00:52:00;22.17;;;9.13;;
42094;SDS011;27753;55.724;37.612;2023-11-19T00:54:27;16.42;;;9.23;;
42094;SDS011;27753;55.724;37.612;2023-11-19T00:56:53;16.92;;;9.80;;
42094;SDS011;27753;55.724;37.612;2023-11-19T00:59:19;18.75;;;10.02;;
42094;SDS011;27753;55.724;37.612;2023-11-19T01:01:45;16.98;;;8.82;;
42094;SDS011;27753;55.724;37.612;2023-11-19T01:04:13;15.68;;;8.57;;
42094;SDS011;27753;55.724;37.612;2023-11-19T01:06:39;15.97;;;9.17;;
42094;SDS011;27753;55.724;37.612;2023-11-19T01:11:33;13.32;;;8.23;;
42094;SDS011;27753;55.724;37.612;2023-11-19T01:14:00;20.17;;;10.48;;
42094;SDS011;27753;55.724;37.612;2023-11-19T01:16:25;15.20;;;8.68;;
42094;SDS011;27753;55.724;37.612;2023-11-19T01:18:52;17.85;;;9.40;;
42094;SDS011;27753;55.724;37.612;2023-11-19T01:21:18;19.38;;;11.07;;
42094;SDS011;27753;55.724;37.612;2023-11-19T01:23:44;23.75;;;12.88;;
42094;SDS011;27753;55.724;37.612;2023-11-19T01:26:11;24.00;;;11.63;;
42094;SDS011;27753;55.724;37.612;2023-11-19T01:28:39;26.58;;;11.10;;
42094;SDS011;27753;55.724;37.612;2023-11-19T01:31:12;21.95;;;9.63;;
42094;SDS011;27753;55.724;37.612;2023-11-19T01:33:40;16.55;;;10.35;;
42094;SDS011;27753;55.724;37.612;2023-11-19T01:36:07;15.27;;;11.00;;
42094;SDS011;27753;55.724;37.612;2023-11-19T01:38:33;22.17;;;11.23;;
42094;SDS011;27753;55.724;37.612;2023-11-19T01:41:00;16.27;;;9.55;;
42094;SDS011;27753;55.724;37.612;2023-11-19T01:43:46;26.00;;;11.48;;
42094;SDS011;27753;55.724;37.612;2023-11-19T01:46:12;21.52;;;11.23;;
42094;SDS011;27753;55.724;37.612;2023-11-19T01:48:45;16.73;;;10.43;;
42094;SDS011;27753;55.724;37.612;2023-11-19T01:51:14;24.13;;;11.68;;
42094;SDS011;27753;55.724;37.612;2023-11-19T01:53:42;23.30;;;10.77;;
42094;SDS011;27753;55.724;37.612;2023-11-19T01:56:09;19.55;;;10.82;;
42094;SDS011;27753;55.724;37.612;2023-11-19T01:58:37;20.00;;;10.45;;
42094;SDS011;27753;55.724;37.612;2023-11-19T02:01:05;14.43;;;9.32;;
42094;SDS011;27753;55.724;37.612;2023-11-19T02:03:32;22.00;;;10.85;;
42094;SDS011;27753;55.724;37.612;2023-11-19T02:05:59;20.13;;;10.70;;
42094;SDS011;27753;55.724;37.612;2023-11-19T02:08:25;23.08;;;11.40;;
42094;SDS011;27753;55.724;37.612;2023-11-19T02:10:51;22.08;;;11.35;;
42094;SDS011;27753;55.724;37.612;2023-11-19T02:13:20;16.42;;;10.95;;
42094;SDS011;27753;55.724;37.612;2023-11-19T02:15:46;23.27;;;12.30;;
42094;SDS011;27753;55.724;37.612;2023-11-19T02:18:18;22.52;;;11.43;;
42094;SDS011;27753;55.724;37.612;2023-11-19T02:20:48;17.50;;;10.77;;
42094;SDS011;27753;55.724;37.612;2023-11-19T02:23:15;28.13;;;13.93;;
42094;SDS011;27753;55.724;37.612;2023-11-19T02:25:42;25.42;;;12.30;;
42094;SDS011;27753;55.724;37.612;2023-11-19T02:28:12;21.95;;;13.55;;
42094;SDS011;27753;55.724;37.612;2023-11-19T02:30:39;20.60;;;11.00;;
42094;SDS011;27753;55.724;37.612;2023-11-19T02:33:05;18.38;;;10.75;;
42094;SDS011;27753;55.724;37.612;2023-11-19T02:35:31;16.83;;;10.05;;
42094;SDS011;27753;55.724;37.612;2023-11-19T02:37:58;18.08;;;9.73;;
42094;SDS011;27753;55.724;37.612;2023-11-19T02:40:25;18.55;;;10.25;;
42094;SDS011;27753;55.724;37.612;2023-11-19T02:42:52;27.63;;;12.63;;
42094;SDS011;27753;55.724;37.612;2023-11-19T02:45:19;18.15;;;12.07;;
42094;SDS011;27753;55.724;37.612;2023-11-19T02:47:47;15.27;;;9.65;;
42094;SDS011;27753;55.724;37.612;2023-11-19T02:50:13;22.75;;;11.93;;
42094;SDS011;27753;55.724;37.612;2023-11-19T02:52:40;18.30;;;9.17;;
42094;SDS011;27753;55.724;37.612;2023-11-19T02:55:07;19.17;;;10.55;;
42094;SDS011;27753;55.724;37.612;2023-11-19T02:57:39;18.90;;;10.43;;
42094;SDS011;27753;55.724;37.612;2023-11-19T03:00:16;20.50;;;12.25;;
42094;SDS011;27753;55.724;37.612;2023-11-19T03:02:49;16.35;;;9.82;;
42094;SDS011;27753;55.724;37.612;2023-11-19T03:05:25;21.83;;;9.95;;
42094;SDS011;27753;55.724;37.612;2023-11-19T03:07:55;16.35;;;9.75;;
42094;SDS011;27753;55.724;37.612;2023-11-19T03:10:21;18.73;;;9.40;;
42094;SDS011;27753;55.724;37.612;2023-11-19T03:12:47;17.15;;;8.88;;
42094;SDS011;27753;55.724;37.612;2023-11-19T03:15:13;18.23;;;11.32;;
42094;SDS011;27753;55.724;37.612;2023-11-19T03:17:39;15.48;;;10.90;;
42094;SDS011;27753;55.724;37.612;2023-11-19T03:20:07;18.60;;;9.98;;
42094;SDS011;27753;55.724;37.612;2023-11-19T03:22:40;21.60;;;10.15;;
42094;SDS011;27753;55.724;37.612;2023-11-19T03:25:07;21.40;;;10.20;;
42094;SDS011;27753;55.724;37.612;2023-11-19T03:27:37;18.73;;;10.60;;
42094;SDS011;27753;55.724;37.612;2023-11-19T03:30:09;16.08;;;9.10;;
42094;SDS011;27753;55.724;37.612;2023-11-19T03:32:36;16.92;;;9.38;;
42094;SDS011;27753;55.724;37.612;2023-11-19T03:35:02;18.08;;;9.52;;
42094;SDS011;27753;55.724;37.612;2023-11-19T03:37:34;15.02;;;10.43;;
42094;SDS011;27753;55.724;37.612;2023-11-19T03:40:01;19.85;;;9.95;;
42094;SDS011;27753;55.724;37.612;2023-11-19T03:42:27;19.13;;;9.65;;
42094;SDS011;27753;55.724;37.612;2023-11-19T03:44:55;16.02;;;9.60;;
42094;SDS011;27753;55.724;37.612;2023-11-19T03:47:21;20.08;;;10.35;;
42094;SDS011;27753;55.724;37.612;2023-11-19T03:49:48;20.10;;;9.50;;
42094;SDS011;27753;55.724;37.612;2023-11-19T03:52:14;14.18;;;8.90;;
42094;SDS011;27753;55.724;37.612;2023-11-19T03:54:40;18.05;;;9.63;;
42094;SDS011;27753;55.724;37.612;2023-11-19T03:57:06;18.75;;;9.35;;
42094;SDS011;27753;55.724;37.612;2023-11-19T03:59:32;12.15;;;8.75;;
42094;SDS011;27753;55.724;37.612;2023-11-19T04:01:58;18.40;;;8.95;;
42094;SDS011;27753;55.724;37.612;2023-11-19T04:06:52;13.75;;;7.28;;
42094;SDS011;27753;55.724;37.612;2023-11-19T04:09:18;15.65;;;9.18;;
42094;SDS011;27753;55.724;37.612;2023-11-19T04:11:44;19.88;;;9.60;;
42094;SDS011;27753;55.724;37.612;2023-11-19T04:14:12;21.02;;;9.93;;
42094;SDS011;27753;55.724;37.612;2023-11-19T04:16:39;19.33;;;9.27;;
42094;SDS011;27753;55.724;37.612;2023-11-19T04:19:05;17.35;;;9.88;;
42094;SDS011;27753;55.724;37.612;2023-11-19T04:21:31;17.30;;;9.88;;
42094;SDS011;27753;55.724;37.612;2023-11-19T04:23:58;19.55;;;10.75;;
42094;SDS011;27753;55.724;37.612;2023-11-19T04:26:24;21.17;;;10.85;;
42094;SDS011;27753;55.724;37.612;2023-11-19T04:28:49;20.52;;;11.05;;
42094;SDS011;27753;55.724;37.612;2023-11-19T04:31:15;22.02;;;10.38;;
42094;SDS011;27753;55.724;37.612;2023-11-19T04:33:42;27.48;;;11.43;;
42094;SDS011;27753;55.724;37.612;2023-11-19T04:36:09;20.27;;;12.02;;
42094;SDS011;27753;55.724;37.612;2023-11-19T04:38:39;23.83;;;12.27;;
42094;SDS011;27753;55.724;37.612;2023-11-19T04:41:05;21.58;;;13.07;;
42094;SDS011;27753;55.724;37.612;2023-11-19T04:43:31;19.85;;;12.63;;
42094;SDS011;27753;55.724;37.612;2023-11-19T04:45:57;27.45;;;13.77;;
42094;SDS011;27753;55.724;37.612;2023-11-19T04:48:23;24.90;;;13.90;;
42094;SDS011;27753;55.724;37.612;2023-11-19T04:50:49;26.15;;;12.93;;
42094;SDS011;27753;55.724;37.612;2023-11-19T04:53:19;20.65;;;13.48;;
42094;SDS011;27753;55.724;37.612;2023-11-19T04:55:45;26.50;;;12.68;;
42094;SDS011;27753;55.724;37.612;2023-11-19T04:58:11;20.38;;;13.52;;
42094;SDS011;27753;55.724;37.612;2023-11-19T05:00:36;24.77;;;14.85;;
42094;SDS011;27753;55.724;37.612;2023-11-19T05:03:02;22.98;;;14.50;;
42094;SDS011;27753;55.724;37.612;2023-11-19T05:05:28;27.08;;;14.20;;
42094;SDS011;27753;55.724;37.612;2023-11-19T05:07:54;23.30;;;14.63;;
42094;SDS011;27753;55.724;37.612;2023-11-19T05:10:20;26.05;;;14.75;;
42094;SDS011;27753;55.724;37.612;2023-11-19T05:12:46;27.90;;;15.40;;
42094;SDS011;27753;55.724;37.612;2023-11-19T05:15:12;19.90;;;12.38;;
42094;SDS011;27753;55.724;37.612;2023-11-19T05:17:39;19.85;;;14.07;;
42094;SDS011;27753;55.724;37.612;2023-11-19T05:20:05;19.35;;;12.60;;
42094;SDS011;27753;55.724;37.612;2023-11-19T05:22:39;26.38;;;14.70;;
42094;SDS011;27753;55.724;37.612;2023-11-19T05:25:06;24.23;;;14.20;;
42094;SDS011;27753;55.724;37.612;2023-11-19T05:27:32;27.42;;;14.45;;
42094;SDS011;27753;55.724;37.612;2023-11-19T05:29:58;28.38;;;15.32;;
42094;SDS011;27753;55.724;37.612;2023-11-19T05:32:23;25.73;;;13.80;;
42094;SDS011;27753;55.724;37.612;2023-11-19T05:34:49;24.38;;;13.32;;
42094;SDS011;27753;55.724;37.612;2023-11-19T05:37:15;24.15;;;16.17;;
42094;SDS011;27753;55.724;37.612;2023-11-19T05:39:41;25.70;;;18.25;;
42094;SDS011;27753;55.724;37.612;2023-11-19T05:42:07;27.65;;;15.52;;
42094;SDS011;27753;55.724;37.612;2023-11-19T05:44:34;22.20;;;14.05;;
42094;SDS011;27753;55.724;37.612;2023-11-19T05:47:00;30.33;;;15.00;;
42094;SDS011;27753;55.724;37.612;2023-11-19T05:49:26;21.15;;;14.88;;
42094;SDS011;27753;55.724;37.612;2023-11-19T05:51:52;23.55;;;14.95;;
42094;SDS011;27753;55.724;37.612;2023-11-19T05:54:20;24.52;;;14.93;;
42094;SDS011;27753;55.724;37.612;2023-11-19T05:56:47;35.72;;;15.73;;
42094;SDS011;27753;55.724;37.612;2023-11-19T06:01:42;23.20;;;12.38;;
42094;SDS011;27753;55.724;37.612;2023-11-19T06:04:09;21.58;;;13.88;;
42094;SDS011;27753;55.724;37.612;2023-11-19T06:06:35;26.98;;;14.80;;
42094;SDS011;27753;55.724;37.612;2023-11-19T06:09:01;31.63;;;14.80;;
42094;SDS011;27753;55.724;37.612;2023-11-19T06:11:28;32.92;;;13.63;;
42094;SDS011;27753;55.724;37.612;2023-11-19T06:13:54;22.67;;;15.23;;
42094;SDS011;27753;55.724;37.612;2023-11-19T06:16:21;19.07;;;12.63;;
42094;SDS011;27753;55.724;37.612;2023-11-19T06:18:47;24.02;;;13.02;;
42094;SDS011;27753;55.724;37.612;2023-11-19T06:21:13;35.53;;;15.73;;
42094;SDS011;27753;55.724;37.612;2023-11-19T06:23:39;26.13;;;13.70;;
42094;SDS011;27753;55.724;37.612;2023-11-19T06:26:05;23.45;;;12.75;;
42094;SDS011;27753;55.724;37.612;2023-11-19T06:28:31;30.95;;;15.80;;
42094;SDS011;27753;55.724;37.612;2023-11-19T06:30:57;27.52;;;14.52;;
42094;SDS011;27753;55.724;37.612;2023-11-19T06:33:23;25.80;;;12.98;;
42094;SDS011;27753;55.724;37.612;2023-11-19T06:35:50;25.30;;;14.30;;
42094;SDS011;27753;55.724;37.612;2023-11-19T06:38:15;19.33;;;13.25;;
42094;SDS011;27753;55.724;37.612;2023-11-19T06:40:41;21.33;;;12.35;;
42094;SDS011;27753;55.724;37.612;2023-11-19T06:43:07;21.35;;;13.73;;
42094;SDS011;27753;55.724;37.612;2023-11-19T06:45:34;21.67;;;14.38;;
42094;SDS011;27753;55.724;37.612;2023-11-19T06:48:01;23.00;;;15.18;;
42094;SDS011;27753;55.724;37.612;2023-11-19T06:50:30;22.20;;;14.20;;
42094;SDS011;27753;55.724;37.612;2023-11-19T06:52:57;21.73;;;14.75;;
42094;SDS011;27753;55.724;37.612;2023-11-19T06:55:23;29.52;;;15.07;;
42094;SDS011;27753;55.724;37.612;2023-11-19T06:57:48;30.45;;;16.45;;
42094;SDS011;27753;55.724;37.612;2023-11-19T07:00:14;22.35;;;14.73;;
42094;SDS011;27753;55.724;37.612;2023-11-19T07:02:41;29.30;;;16.90;;
42094;SDS011;27753;55.724;37.612;2023-11-19T07:05:09;26.77;;;17.55;;
42094;SDS011;27753;55.724;37.612;2023-11-19T07:07:37;16.73;;;11.50;;
42094;SDS011;27753;55.724;37.612;2023-11-19T07:10:08;24.70;;;14.88;;
42094;SDS011;27753;55.724;37.612;2023-11-19T07:12:34;18.83;;;13.07;;
42094;SDS011;27753;55.724;37.612;2023-11-19T07:15:01;28.07;;;15.57;;
42094;SDS011;27753;55.724;37.612;2023-11-19T07:17:29;22.45;;;14.55;;
42094;SDS011;27753;55.724;37.612;2023-11-19T07:22:24;32.47;;;16.13;;
42094;SDS011;27753;55.724;37.612;2023-11-19T07:24:50;26.90;;;15.45;;
42094;SDS011;27753;55.724;37.612;2023-11-19T07:27:18;30.75;;;14.38;;
42094;SDS011;27753;55.724;37.612;2023-11-19T07:29:44;23.42;;;13.30;;
42094;SDS011;27753;55.724;37.612;2023-11-19T07:32:11;19.80;;;13.63;;
42094;SDS011;27753;55.724;37.612;2023-11-19T07:34:38;13.70;;;9.35;;
42094;SDS011;27753;55.724;37.612;2023-11-19T07:37:05;22.33;;;12.30;;
42094;SDS011;27753;55.724;37.612;2023-11-19T07:39:30;18.45;;;12.13;;
42094;SDS011;27753;55.724;37.612;2023-11-19T07:41:57;29.35;;;16.38;;
42094;SDS011;27753;55.724;37.612;2023-11-19T07:44:23;28.35;;;14.98;;
42094;SDS011;27753;55.724;37.612;2023-11-19T07:46:52;19.50;;;15.00;;
42094;SDS011;27753;55.724;37.612;2023-11-19T07:49:18;28.70;;;16.80;;
42094;SDS011;27753;55.724;37.612;2023-11-19T07:51:44;15.15;;;10.00;;
42094;SDS011;27753;55.724;37.612;2023-11-19T07:54:10;15.15;;;10.25;;
42094;SDS011;27753;55.724;37.612;2023-11-19T07:56:36;24.95;;;13.13;;
42094;SDS011;27753;55.724;37.612;2023-11-19T07:59:02;22.40;;;12.30;;
42094;SDS011;27753;55.724;37.612;2023-11-19T08:01:28;24.27;;;12.88;;
42094;SDS011;27753;55.724;37.612;2023-11-19T08:03:57;19.48;;;12.57;;
42094;SDS011;27753;55.724;37.612;2023-11-19T08:06:23;20.05;;;10.82;;
42094;SDS011;27753;55.724;37.612;2023-11-19T08:08:50;16.75;;;11.23;;
42094;SDS011;27753;55.724;37.612;2023-11-19T08:11:17;18.40;;;12.43;;
42094;SDS011;27753;55.724;37.612;2023-11-19T08:13:44;20.70;;;12.93;;
42094;SDS011;27753;55.724;37.612;2023-11-19T08:16:10;25.17;;;12.32;;
42094;SDS011;27753;55.724;37.612;2023-11-19T08:18:36;22.75;;;13.43;;
42094;SDS011;27753;55.724;37.612;2023-11-19T08:21:03;25.42;;;13.95;;
42094;SDS011;27753;55.724;37.612;2023-11-19T08:23:30;24.80;;;12.32;;
42094;SDS011;27753;55.724;37.612;2023-11-19T08:25:55;14.98;;;9.95;;
42094;SDS011;27753;55.724;37.612;2023-11-19T08:28:21;18.25;;;10.40;;
42094;SDS011;27753;55.724;37.612;2023-11-19T08:30:47;18.42;;;10.93;;
42094;SDS011;27753;55.724;37.612;2023-11-19T08:33:13;23.70;;;10.85;;
42094;SDS011;27753;55.724;37.612;2023-11-19T08:35:40;15.55;;;11.10;;
42094;SDS011;27753;55.724;37.612;2023-11-19T08:38:06;29.65;;;16.95;;
42094;SDS011;27753;55.724;37.612;2023-11-19T08:40:32;29.90;;;15.77;;
42094;SDS011;27753;55.724;37.612;2023-11-19T08:42:57;27.17;;;15.63;;
42094;SDS011;27753;55.724;37.612;2023-11-19T08:45:23;29.98;;;14.50;;
42094;SDS011;27753;55.724;37.612;2023-11-19T08:47:50;18.25;;;12.00;;
42094;SDS011;27753;55.724;37.612;2023-11-19T08:50:15;21.52;;;12.40;;
42094;SDS011;27753;55.724;37.612;2023-11-19T08:52:41;17.48;;;11.27;;
42094;SDS011;27753;55.724;37.612;2023-11-19T08:55:08;25.58;;;12.13;;
42094;SDS011;27753;55.724;37.612;2023-11-19T08:57:35;15.98;;;9.95;;
42094;SDS011;27753;55.724;37.612;2023-11-19T09:00:01;21.90;;;11.85;;
42094;SDS011;27753;55.724;37.612;2023-11-19T09:02:32;19.95;;;11.80;;
42094;SDS011;27753;55.724;37.612;2023-11-19T09:04:59;17.70;;;11.80;;
42094;SDS011;27753;55.724;37.612;2023-11-19T09:07:25;21.63;;;11.50;;
42094;SDS011;27753;55.724;37.612;2023-11-19T09:09:50;17.13;;;10.40;;
42094;SDS011;27753;55.724;37.612;2023-11-19T09:12:16;20.88;;;11.63;;
42094;SDS011;27753;55.724;37.612;2023-11-19T09:14:42;18.52;;;12.18;;
42094;SDS011;27753;55.724;37.612;2023-11-19T09:17:08;22.90;;;13.73;;
42094;SDS011;27753;55.724;37.612;2023-11-19T09:19:35;20.02;;;11.02;;
42094;SDS011;27753;55.724;37.612;2023-11-19T09:22:01;19.77;;;11.52;;
42094;SDS011;27753;55.724;37.612;2023-11-19T09:24:27;19.25;;;12.40;;
42094;SDS011;27753;55.724;37.612;2023-11-19T09:26:56;17.40;;;10.93;;
42094;SDS011;27753;55.724;37.612;2023-11-19T09:29:22;15.40;;;10.07;;
42094;SDS011;27753;55.724;37.612;2023-11-19T09:31:48;19.90;;;10.80;;
42094;SDS011;27753;55.724;37.612;2023-11-19T09:34:14;22.35;;;12.40;;
42094;SDS011;27753;55.724;37.612;2023-11-19T09:36:40;14.90;;;10.20;;
42094;SDS011;27753;55.724;37.612;2023-11-19T09:39:09;25.42;;;9.18;;
42094;SDS011;27753;55.724;37.612;2023-11-19T09:41:36;19.10;;;11.98;;
42094;SDS011;27753;55.724;37.612;2023-11-19T09:44:01;15.95;;;11.63;;
42094;SDS011;27753;55.724;37.612;2023-11-19T09:46:27;18.48;;;9.93;;
42094;SDS011;27753;55.724;37.612;2023-11-19T09:48:55;17.52;;;11.38;;
42094;SDS011;27753;55.724;37.612;2023-11-19T09:51:23;18.55;;;8.77;;
42094;SDS011;27753;55.724;37.612;2023-11-19T09:53:49;19.52;;;9.85;;
42094;SDS011;27753;55.724;37.612;2023-11-19T09:56:15;18.80;;;11.43;;
42094;SDS011;27753;55.724;37.612;2023-11-19T09:58:44;18.25;;;10.38;;
42094;SDS011;27753;55.724;37.612;2023-11-19T10:01:12;23.80;;;10.10;;
42094;SDS011;27753;55.724;37.612;2023-11-19T10:03:41;12.88;;;9.15;;
42094;SDS011;27753;55.724;37.612;2023-11-19T10:06:09;20.17;;;11.50;;
42094;SDS011;27753;55.724;37.612;2023-11-19T10:08:39;20.35;;;11.27;;
42094;SDS011;27753;55.724;37.612;2023-11-19T10:11:06;20.13;;;11.70;;
42094;SDS011;27753;55.724;37.612;2023-11-19T10:13:35;21.90;;;10.63;;
42094;SDS011;27753;55.724;37.612;2023-11-19T10:16:08;19.77;;;11.70;;
42094;SDS011;27753;55.724;37.612;2023-11-19T10:18:36;12.63;;;9.68;;
42094;SDS011;27753;55.724;37.612;2023-11-19T10:21:06;12.85;;;9.75;;
42094;SDS011;27753;55.724;37.612;2023-11-19T10:23:51;18.15;;;8.65;;
42094;SDS011;27753;55.724;37.612;2023-11-19T10:26:19;16.52;;;10.60;;
42094;SDS011;27753;55.724;37.612;2023-11-19T10:28:46;22.00;;;11.20;;
42094;SDS011;27753;55.724;37.612;2023-11-19T10:31:15;21.10;;;12.10;;
42094;SDS011;27753;55.724;37.612;2023-11-19T10:33:43;21.27;;;12.73;;
42094;SDS011;27753;55.724;37.612;2023-11-19T10:36:12;18.92;;;10.60;;
42094;SDS011;27753;55.724;37.612;2023-11-19T10:38:52;19.65;;;10.75;;
42094;SDS011;27753;55.724;37.612;2023-11-19T10:41:31;21.17;;;11.98;;
42094;SDS011;27753;55.724;37.612;2023-11-19T10:43:58;23.48;;;12.55;;
42094;SDS011;27753;55.724;37.612;2023-11-19T10:46:42;17.65;;;9.05;;
42094;SDS011;27753;55.724;37.612;2023-11-19T10:49:21;12.90;;;9.40;;
42094;SDS011;27753;55.724;37.612;2023-11-19T10:51:47;14.05;;;9.10;;
42094;SDS011;27753;55.724;37.612;2023-11-19T10:54:15;17.33;;;11.48;;
42094;SDS011;27753;55.724;37.612;2023-11-19T10:56:48;13.10;;;9.48;;
42094;SDS011;27753;55.724;37.612;2023-11-19T10:59:19;18.63;;;11.15;;
42094;SDS011;27753;55.724;37.612;2023-11-19T11:01:47;18.10;;;11.18;;
42094;SDS011;27753;55.724;37.612;2023-11-19T11:04:18;24.80;;;10.10;;
42094;SDS011;27753;55.724;37.612;2023-11-19T11:07:05;18.20;;;10.27;;
42094;SDS011;27753;55.724;37.612;2023-11-19T11:09:44;17.45;;;9.52;;
42094;SDS011;27753;55.724;37.612;2023-11-19T11:12:37;15.68;;;9.60;;
42094;SDS011;27753;55.724;37.612;2023-11-19T11:15:06;14.15;;;9.57;;
42094;SDS011;27753;55.724;37.612;2023-11-19T11:17:33;20.73;;;10.05;;
42094;SDS011;27753;55.724;37.612;2023-11-19T11:20:01;16.77;;;9.68;;
42094;SDS011;27753;55.724;37.612;2023-11-19T11:22:27;19.45;;;11.45;;
42094;SDS011;27753;55.724;37.612;2023-11-19T11:25:11;17.05;;;10.82;;
42094;SDS011;27753;55.724;37.612;2023-11-19T11:30:39;24.00;;;13.18;;
42094;SDS011;27753;55.724;37.612;2023-11-19T11:36:27;18.33;;;10.38;;
42094;SDS011;27753;55.724;37.612;2023-11-19T11:38:56;26.15;;;11.65;;
42094;SDS011;27753;55.724;37.612;2023-11-19T11:41:32;14.90;;;9.90;;
42094;SDS011;27753;55.724;37.612;2023-11-19T11:43:58;15.95;;;10.60;;
42094;SDS011;27753;55.724;37.612;2023-11-19T11:49:01;16.50;;;9.75;;
42094;SDS011;27753;55.724;37.612;2023-11-19T11:59:47;21.40;;;9.95;;
42094;SDS011;27753;55.724;37.612;2023-11-19T12:02:15;20.35;;;11.07;;
42094;SDS011;27753;55.724;37.612;2023-11-19T12:04:50;32.45;;;12.07;;
42094;SDS011;27753;55.724;37.612;2023-11-19T12:07:17;15.77;;;9.23;;
42094;SDS011;27753;55.724;37.612;2023-11-19T12:10:28;15.27;;;9.48;;
42094;SDS011;27753;55.724;37.612;2023-11-19T12:12:40;13.77;;;8.35;;
42094;SDS011;27753;55.724;37.612;2023-11-19T12:15:07;14.98;;;8.13;;
42094;SDS011;27753;55.724;37.612;2023-11-19T12:17:37;17.63;;;9.13;;
42094;SDS011;27753;55.724;37.612;2023-11-19T12:20:09;19.27;;;10.27;;
42094;SDS011;27753;55.724;37.612;2023-11-19T12:22:38;16.73;;;10.23;;
42094;SDS011;27753;55.724;37.612;2023-11-19T12:25:06;21.27;;;8.77;;
42094;SDS011;27753;55.724;37.612;2023-11-19T12:27:34;17.08;;;9.55;;
42094;SDS011;27753;55.724;37.612;2023-11-19T12:30:01;17.15;;;9.57;;
42094;SDS011;27753;55.724;37.612;2023-11-19T12:32:51;12.65;;;8.45;;
42094;SDS011;27753;55.724;37.612;2023-11-19T12:35:18;21.67;;;8.80;;
42094;SDS011;27753;55.724;37.612;2023-11-19T12:37:50;16.83;;;10.10;;
42094;SDS011;27753;55.724;37.612;2023-11-19T12:42:47;25.67;;;12.10;;
42094;SDS011;27753;55.724;37.612;2023-11-19T12:45:19;17.90;;;9.55;;
42094;SDS011;27753;55.724;37.612;2023-11-19T12:47:48;17.67;;;8.88;;
42094;SDS011;27753;55.724;37.612;2023-11-19T12:50:16;16.88;;;9.90;;
42094;SDS011;27753;55.724;37.612;2023-11-19T12:53:04;17.30;;;10.07;;
42094;SDS011;27753;55.724;37.612;2023-11-19T12:55:30;19.75;;;11.55;;
42094;SDS011;27753;55.724;37.612;2023-11-19T12:57:57;22.60;;;11.90;;
42094;SDS011;27753;55.724;37.612;2023-11-19T13:00:25;16.77;;;9.47;;
42094;SDS011;27753;55.724;37.612;2023-11-19T13:10:28;17.63;;;11.63;;
42094;SDS011;27753;55.724;37.612;2023-11-19T13:13:05;18.67;;;12.80;;
42094;SDS011;27753;55.724;37.612;2023-11-19T13:15:33;20.15;;;11.80;;
42094;SDS011;27753;55.724;37.612;2023-11-19T13:18:00;22.73;;;12.02;;
42094;SDS011;27753;55.724;37.612;2023-11-19T13:20:27;22.75;;;11.65;;
42094;SDS011;27753;55.724;37.612;2023-11-19T13:23:03;17.25;;;12.27;;
42094;SDS011;27753;55.724;37.612;2023-11-19T13:25:30;21.42;;;10.95;;
42094;SDS011;27753;55.724;37.612;2023-11-19T13:28:01;17.98;;;10.50;;
42094;SDS011;27753;55.724;37.612;2023-11-19T13:30:27;19.58;;;11.82;;
42094;SDS011;27753;55.724;37.612;2023-11-19T13:32:54;17.85;;;11.45;;
42094;SDS011;27753;55.724;37.612;2023-11-19T13:35:21;21.67;;;11.45;;
42094;SDS011;27753;55.724;37.612;2023-11-19T13:40:14;21.65;;;11.73;;
42094;SDS011;27753;55.724;37.612;2023-11-19T13:42:41;17.00;;;11.68;;
42094;SDS011;27753;55.724;37.612;2023-11-19T13:45:11;20.35;;;12.98;;
42094;SDS011;27753;55.724;37.612;2023-11-19T13:47:40;14.85;;;10.93;;
42094;SDS011;27753;55.724;37.612;2023-11-19T13:50:08;21.48;;;12.52;;
42094;SDS011;27753;55.724;37.612;2023-11-19T13:52:36;20.95;;;11.77;;
42094;SDS011;27753;55.724;37.612;2023-11-19T13:55:06;26.00;;;12.80;;
42094;SDS011;27753;55.724;37.612;2023-11-19T13:57:34;24.48;;;12.80;;
42094;SDS011;27753;55.724;37.612;2023-11-19T14:00:04;19.77;;;12.32;;
42094;SDS011;27753;55.724;37.612;2023-11-19T14:02:35;19.08;;;13.25;;
42094;SDS011;27753;55.724;37.612;2023-11-19T14:05:01;27.75;;;13.68;;
42094;SDS011;27753;55.724;37.612;2023-11-19T14:07:27;21.52;;;13.93;;
42094;SDS011;27753;55.724;37.612;2023-11-19T14:09:59;24.25;;;12.98;;
42094;SDS011;27753;55.724;37.612;2023-11-19T14:12:26;26.77;;;14.00;;
42094;SDS011;27753;55.724;37.612;2023-11-19T14:14:52;20.48;;;13.05;;
42094;SDS011;27753;55.724;37.612;2023-11-19T14:17:19;26.15;;;15.00;;
42094;SDS011;27753;55.724;37.612;2023-11-19T14:19:45;26.60;;;14.80;;
42094;SDS011;27753;55.724;37.612;2023-11-19T14:22:11;22.13;;;10.32;;
42094;SDS011;27753;55.724;37.612;2023-11-19T14:24:37;24.85;;;13.40;;
42094;SDS011;27753;55.724;37.612;2023-11-19T14:27:05;21.10;;;12.65;;
42094;SDS011;27753;55.724;37.612;2023-11-19T14:29:31;28.67;;;14.10;;
42094;SDS011;27753;55.724;37.612;2023-11-19T14:31:57;22.60;;;12.82;;
42094;SDS011;27753;55.724;37.612;2023-11-19T14:34:24;32.67;;;14.70;;
42094;SDS011;27753;55.724;37.612;2023-11-19T14:36:51;20.25;;;12.75;;
42094;SDS011;27753;55.724;37.612;2023-11-19T14:39:18;26.77;;;16.00;;
42094;SDS011;27753;55.724;37.612;2023-11-19T14:41:44;28.95;;;12.88;;
42094;SDS011;27753;55.724;37.612;2023-11-19T14:44:10;19.58;;;12.63;;
42094;SDS011;27753;55.724;37.612;2023-11-19T14:46:36;14.13;;;8.63;;
42094;SDS011;27753;55.724;37.612;2023-11-19T14:49:05;20.17;;;10.02;;
42094;SDS011;27753;55.724;37.612;2023-11-19T14:51:38;19.98;;;10.68;;
42094;SDS011;27753;55.724;37.612;2023-11-19T14:54:04;24.30;;;11.60;;
42094;SDS011;27753;55.724;37.612;2023-11-19T14:56:30;23.30;;;13.70;;